createdAt,value
2018-08-07T00:00:10.493Z,18.3
2018-08-07T00:01:17.704Z,18.3
2018-08-07T00:02:25.146Z,18.3
2018-08-07T00:03:32.345Z,18.3
2018-08-07T00:04:39.558Z,18.3
2018-08-07T00:05:46.770Z,18.3
2018-08-07T00:06:53.984Z,18.3
2018-08-07T00:08:01.197Z,18.2
2018-08-07T00:09:08.413Z,18.2
2018-08-07T00:10:15.633Z,18.3
2018-08-07T00:11:22.846Z,18.3
2018-08-07T00:12:29.795Z,18.3
2018-08-07T00:13:37.008Z,18.2
2018-08-07T00:14:44.221Z,18.2
2018-08-07T00:15:51.434Z,18.2
2018-08-07T00:16:58.647Z,18.2
2018-08-07T00:18:05.857Z,18.2
2018-08-07T00:19:13.069Z,18.2
2018-08-07T00:20:20.278Z,18.2
2018-08-07T00:21:27.491Z,18.2
2018-08-07T00:22:34.705Z,18.2
2018-08-07T00:23:41.925Z,18.2
2018-08-07T00:24:49.133Z,18.2
2018-08-07T00:25:56.352Z,18.2
2018-08-07T00:27:03.290Z,18.1
2018-08-07T00:28:10.506Z,18.1
2018-08-07T00:29:17.723Z,18.1
2018-08-07T00:30:24.935Z,18.1
2018-08-07T00:31:32.147Z,18.1
2018-08-07T00:32:39.364Z,18.1
2018-08-07T00:33:46.573Z,18.1
2018-08-07T00:34:53.782Z,18.1
2018-08-07T00:36:00.998Z,18
2018-08-07T00:37:08.209Z,18
2018-08-07T00:38:15.423Z,18
2018-08-07T00:39:22.630Z,18
2018-08-07T00:40:29.841Z,18
2018-08-07T00:41:37.050Z,18
2018-08-07T00:42:43.998Z,18
2018-08-07T00:43:51.204Z,18
2018-08-07T00:44:58.417Z,18
2018-08-07T00:46:05.633Z,17.9
2018-08-07T00:47:12.841Z,17.9
2018-08-07T00:48:20.056Z,17.9
2018-08-07T00:49:27.268Z,17.9
2018-08-07T00:50:34.481Z,17.9
2018-08-07T00:51:41.692Z,17.9
2018-08-07T00:52:48.906Z,17.9
2018-08-07T00:53:56.137Z,17.9
2018-08-07T00:55:03.346Z,17.9
2018-08-07T00:56:10.560Z,17.9
2018-08-07T00:57:17.777Z,17.9
2018-08-07T00:58:24.990Z,17.9
2018-08-07T00:59:31.935Z,17.9
2018-08-07T01:00:39.144Z,17.9
2018-08-07T01:01:46.357Z,17.9
2018-08-07T01:02:53.328Z,17.9
2018-08-07T01:04:00.540Z,17.9
2018-08-07T01:05:07.479Z,17.9
2018-08-07T01:06:14.690Z,17.9
2018-08-07T01:07:21.901Z,17.9
2018-08-07T01:08:29.111Z,17.8
2018-08-07T01:09:36.328Z,17.8
2018-08-07T01:10:43.542Z,17.8
2018-08-07T01:11:50.754Z,17.8
2018-08-07T01:12:57.967Z,17.8
2018-08-07T01:14:05.183Z,17.8
2018-08-07T01:15:12.393Z,17.8
2018-08-07T01:16:19.606Z,17.8
2018-08-07T01:17:26.822Z,17.8
2018-08-07T01:18:34.034Z,17.8
2018-08-07T01:19:41.247Z,17.7
2018-08-07T01:20:48.457Z,17.7
2018-08-07T01:21:55.403Z,17.7
2018-08-07T01:23:02.608Z,17.7
2018-08-07T01:24:09.831Z,17.7
2018-08-07T01:25:17.034Z,17.7
2018-08-07T01:26:24.246Z,17.6
2018-08-07T01:27:31.192Z,17.6
2018-08-07T01:28:38.406Z,17.7
2018-08-07T01:29:45.613Z,17.7
2018-08-07T01:30:52.563Z,17.7
2018-08-07T01:31:59.764Z,17.6
2018-08-07T01:33:06.977Z,17.6
2018-08-07T01:34:13.908Z,17.6
2018-08-07T01:35:21.118Z,17.6
2018-08-07T01:36:28.337Z,17.6
2018-08-07T01:37:35.544Z,17.6
2018-08-07T01:38:42.759Z,17.6
2018-08-07T01:39:49.976Z,17.6
2018-08-07T01:40:56.907Z,17.6
2018-08-07T01:42:03.845Z,17.6
2018-08-07T01:43:11.060Z,17.5
2018-08-07T01:44:18.266Z,17.5
2018-08-07T01:45:25.474Z,17.5
2018-08-07T01:46:32.685Z,17.5
2018-08-07T01:47:39.897Z,17.5
2018-08-07T01:48:47.114Z,17.5
2018-08-07T01:49:54.051Z,17.4
2018-08-07T01:51:01.277Z,17.4
2018-08-07T01:52:08.486Z,17.4
2018-08-07T01:53:15.699Z,17.4
2018-08-07T01:54:22.906Z,17.4
2018-08-07T01:55:30.122Z,17.4
2018-08-07T01:56:37.331Z,17.4
2018-08-07T01:57:44.539Z,17.4
2018-08-07T01:58:51.468Z,17.4
2018-08-07T01:59:58.679Z,17.4
2018-08-07T02:01:05.614Z,17.4
2018-08-07T02:02:12.824Z,17.3
2018-08-07T02:03:20.034Z,17.3
2018-08-07T02:04:27.246Z,17.3
2018-08-07T02:05:34.462Z,17.3
2018-08-07T02:06:41.672Z,17.2
2018-08-07T02:07:48.888Z,17.2
2018-08-07T02:08:55.828Z,17.2
2018-08-07T02:10:02.765Z,17.2
2018-08-07T02:11:09.975Z,17.2
2018-08-07T02:12:17.194Z,17.2
2018-08-07T02:13:24.398Z,17.2
2018-08-07T02:14:31.608Z,17.2
2018-08-07T02:15:38.820Z,17.2
2018-08-07T02:16:46.035Z,17.2
2018-08-07T02:17:53.247Z,17.3
2018-08-07T02:19:00.452Z,17.3
2018-08-07T02:20:22.322Z,17.3
2018-08-07T02:21:29.531Z,17.3
2018-08-07T02:22:36.757Z,17.3
2018-08-07T02:23:43.696Z,17.3
2018-08-07T02:24:50.904Z,17.3
2018-08-07T02:25:58.116Z,17.3
2018-08-07T02:27:05.326Z,17.4
2018-08-07T02:28:12.543Z,17.4
2018-08-07T02:29:19.749Z,17.4
2018-08-07T02:30:26.685Z,17.4
2018-08-07T02:31:33.893Z,17.3
2018-08-07T02:32:41.108Z,17.3
2018-08-07T02:33:48.317Z,17.3
2018-08-07T02:34:55.528Z,17.3
2018-08-07T02:36:02.750Z,17.3
2018-08-07T02:37:10.015Z,17.4
2018-08-07T02:38:17.213Z,17.4
2018-08-07T02:39:24.426Z,17.4
2018-08-07T02:40:31.644Z,17.3
2018-08-07T02:41:38.854Z,17.3
2018-08-07T02:42:46.070Z,17.3
2018-08-07T02:43:53.003Z,17.2
2018-08-07T02:45:00.215Z,17.2
2018-08-07T02:46:07.424Z,17.2
2018-08-07T02:47:14.635Z,17.2
2018-08-07T02:48:21.847Z,17.2
2018-08-07T02:49:29.055Z,17.3
2018-08-07T02:50:36.260Z,17.3
2018-08-07T02:51:43.470Z,17.3
2018-08-07T02:52:50.689Z,17.3
2018-08-07T02:53:57.644Z,17.3
2018-08-07T02:55:04.856Z,17.3
2018-08-07T02:56:12.067Z,17.3
2018-08-07T02:57:19.276Z,17.2
2018-08-07T02:58:26.486Z,17.2
2018-08-07T02:59:33.697Z,17.2
2018-08-07T03:00:40.912Z,17.2
2018-08-07T03:01:48.123Z,17.2
2018-08-07T03:02:55.334Z,17.2
2018-08-07T03:04:02.551Z,17.3
2018-08-07T03:05:09.757Z,17.3
2018-08-07T03:06:16.972Z,17.3
2018-08-07T03:07:24.178Z,17.2
2018-08-07T03:08:31.390Z,17.2
2018-08-07T03:09:38.603Z,17.2
2018-08-07T03:10:45.813Z,17.2
2018-08-07T03:11:52.753Z,17.2
2018-08-07T03:12:59.691Z,17.2
2018-08-07T03:14:06.901Z,17.2
2018-08-07T03:15:14.109Z,17.2
2018-08-07T03:16:21.045Z,17.2
2018-08-07T03:17:28.253Z,17.2
2018-08-07T03:18:35.473Z,17.1
2018-08-07T03:19:42.415Z,17.1
2018-08-07T03:20:49.621Z,17.1
2018-08-07T03:21:56.831Z,17.1
2018-08-07T03:23:03.762Z,17.1
2018-08-07T03:24:10.973Z,17.1
2018-08-07T03:25:18.220Z,17
2018-08-07T03:26:25.425Z,17
2018-08-07T03:27:32.632Z,17
2018-08-07T03:28:39.850Z,16.9
2018-08-07T03:29:47.065Z,17
2018-08-07T03:30:54.281Z,17
2018-08-07T03:32:01.496Z,16.9
2018-08-07T03:33:08.701Z,16.9
2018-08-07T03:34:15.915Z,16.9
2018-08-07T03:35:22.857Z,16.9
2018-08-07T03:36:30.070Z,16.9
2018-08-07T03:37:37.278Z,16.9
2018-08-07T03:38:44.488Z,16.9
2018-08-07T03:39:51.695Z,16.8
2018-08-07T03:40:58.904Z,16.8
2018-08-07T03:42:05.840Z,16.8
2018-08-07T03:43:13.052Z,16.8
2018-08-07T03:44:19.710Z,16.8
2018-08-07T03:45:26.917Z,16.8
2018-08-07T03:46:34.126Z,16.7
2018-08-07T03:47:41.064Z,16.7
2018-08-07T03:48:48.274Z,16.7
2018-08-07T03:49:55.485Z,16.7
2018-08-07T03:51:02.694Z,16.7
2018-08-07T03:52:09.904Z,16.7
2018-08-07T03:53:16.840Z,16.7
2018-08-07T03:54:24.057Z,16.7
2018-08-07T03:55:30.990Z,16.7
2018-08-07T03:56:38.203Z,16.7
2018-08-07T03:57:45.437Z,16.7
2018-08-07T03:58:52.375Z,16.7
2018-08-07T03:59:59.616Z,16.7
2018-08-07T04:01:06.827Z,16.6
2018-08-07T04:02:14.044Z,16.6
2018-08-07T04:03:21.257Z,16.6
2018-08-07T04:04:28.476Z,16.6
2018-08-07T04:05:35.685Z,16.6
2018-08-07T04:06:42.616Z,16.6
2018-08-07T04:07:49.827Z,16.6
2018-08-07T04:08:57.042Z,16.6
2018-08-07T04:10:03.983Z,16.6
2018-08-07T04:11:11.194Z,16.6
2018-08-07T04:12:18.405Z,16.6
2018-08-07T04:13:25.615Z,16.6
2018-08-07T04:14:32.828Z,16.6
2018-08-07T04:15:39.760Z,16.6
2018-08-07T04:16:46.973Z,16.6
2018-08-07T04:17:53.912Z,16.6
2018-08-07T04:19:01.132Z,16.6
2018-08-07T04:20:08.342Z,16.6
2018-08-07T04:21:15.550Z,16.7
2018-08-07T04:22:22.487Z,16.7
2018-08-07T04:23:29.424Z,16.7
2018-08-07T04:24:36.635Z,16.6
2018-08-07T04:25:43.846Z,16.6
2018-08-07T04:26:51.062Z,16.6
2018-08-07T04:27:58.273Z,16.6
2018-08-07T04:29:05.482Z,16.7
2018-08-07T04:30:12.699Z,16.6
2018-08-07T04:31:19.419Z,16.7
2018-08-07T04:32:26.641Z,16.7
2018-08-07T04:33:33.849Z,16.7
2018-08-07T04:34:41.057Z,16.7
2018-08-07T04:35:48.274Z,16.7
2018-08-07T04:36:55.487Z,16.8
2018-08-07T04:38:02.705Z,16.8
2018-08-07T04:39:09.920Z,16.8
2018-08-07T04:40:17.129Z,16.8
2018-08-07T04:41:24.342Z,16.8
2018-08-07T04:42:31.560Z,16.9
2018-08-07T04:43:38.500Z,16.9
2018-08-07T04:44:45.714Z,16.9
2018-08-07T04:45:53.054Z,16.9
2018-08-07T04:47:00.467Z,16.9
2018-08-07T04:48:07.679Z,17
2018-08-07T04:49:14.620Z,17
2018-08-07T04:50:21.839Z,17
2018-08-07T04:51:28.773Z,17
2018-08-07T04:52:35.986Z,17.1
2018-08-07T04:53:42.920Z,17.1
2018-08-07T04:54:50.131Z,17.1
2018-08-07T04:55:57.362Z,17.1
2018-08-07T04:57:04.840Z,17.1
2018-08-07T04:58:12.054Z,17.1
2018-08-07T04:59:19.280Z,17.1
2018-08-07T05:00:26.497Z,17.1
2018-08-07T05:01:33.714Z,17.2
2018-08-07T05:02:40.924Z,17.2
2018-08-07T05:03:47.860Z,17.2
2018-08-07T05:04:55.071Z,17.2
2018-08-07T05:06:02.295Z,17.3
2018-08-07T05:07:09.521Z,17.3
2018-08-07T05:08:16.748Z,17.3
2018-08-07T05:09:23.960Z,17.3
2018-08-07T05:10:31.340Z,17.3
2018-08-07T05:11:38.758Z,17.3
2018-08-07T05:12:45.973Z,17.4
2018-08-07T05:13:53.183Z,17.4
2018-08-07T05:15:00.118Z,17.4
2018-08-07T05:16:07.326Z,17.4
2018-08-07T05:17:14.263Z,17.5
2018-08-07T05:18:21.474Z,17.5
2018-08-07T05:19:28.730Z,17.5
2018-08-07T05:20:35.941Z,17.6
2018-08-07T05:21:43.172Z,17.6
2018-08-07T05:22:50.403Z,17.7
2018-08-07T05:23:57.356Z,17.7
2018-08-07T05:25:04.606Z,17.8
2018-08-07T05:26:11.552Z,17.8
2018-08-07T05:27:18.773Z,17.8
2018-08-07T05:28:25.976Z,17.9
2018-08-07T05:29:33.185Z,17.9
2018-08-07T05:30:40.397Z,17.9
2018-08-07T05:31:47.335Z,18
2018-08-07T05:32:54.549Z,18
2018-08-07T05:34:01.482Z,18
2018-08-07T05:35:08.727Z,18
2018-08-07T05:36:15.940Z,18.1
2018-08-07T05:37:22.888Z,18.1
2018-08-07T05:38:30.085Z,18.2
2018-08-07T05:39:37.297Z,18.2
2018-08-07T05:40:44.638Z,18.3
2018-08-07T05:41:52.134Z,18.3
2018-08-07T05:42:59.341Z,18.3
2018-08-07T05:44:06.289Z,18.4
2018-08-07T05:45:13.504Z,18.5
2018-08-07T05:46:20.715Z,18.5
2018-08-07T05:47:27.936Z,18.6
2018-08-07T05:48:35.151Z,18.6
2018-08-07T05:49:42.361Z,18.6
2018-08-07T05:50:50.519Z,18.7
2018-08-07T05:51:59.136Z,18.8
2018-08-07T05:53:06.349Z,18.8
2018-08-07T05:54:13.559Z,18.9
2018-08-07T05:55:20.775Z,18.9
2018-08-07T05:56:28.022Z,19.1
2018-08-07T05:57:35.024Z,19.2
2018-08-07T05:58:42.311Z,19.3
2018-08-07T05:59:49.639Z,19.4
2018-08-07T06:00:56.855Z,19.5
2018-08-07T06:02:04.064Z,19.6
2018-08-07T06:03:11.010Z,19.7
2018-08-07T06:04:17.942Z,19.8
2018-08-07T06:05:25.155Z,19.9
2018-08-07T06:06:32.369Z,20.1
2018-08-07T06:07:39.586Z,20.1
2018-08-07T06:08:46.800Z,20.2
2018-08-07T06:09:54.012Z,20.2
2018-08-07T06:11:01.224Z,20.4
2018-08-07T06:12:08.454Z,20.6
2018-08-07T06:13:15.670Z,20.7
2018-08-07T06:14:22.885Z,20.9
2018-08-07T06:15:29.828Z,21.1
2018-08-07T06:16:36.771Z,21.3
2018-08-07T06:17:43.705Z,21.5
2018-08-07T06:18:50.644Z,21.7
2018-08-07T06:19:57.872Z,21.9
2018-08-07T06:21:04.824Z,22
2018-08-07T06:22:11.503Z,22
2018-08-07T06:23:18.713Z,22.2
2018-08-07T06:24:25.929Z,22.3
2018-08-07T06:25:33.225Z,22.5
2018-08-07T06:26:40.572Z,22.6
2018-08-07T06:27:47.783Z,22.8
2018-08-07T06:28:54.719Z,23
2018-08-07T06:30:01.123Z,23.1
2018-08-07T06:31:08.065Z,23.1
2018-08-07T06:32:15.009Z,23.2
2018-08-07T06:33:22.220Z,23.3
2018-08-07T06:34:29.150Z,23.5
2018-08-07T06:35:36.090Z,23.6
2018-08-07T06:36:43.030Z,23.6
2018-08-07T06:37:50.140Z,23.8
2018-08-07T06:38:57.512Z,24
2018-08-07T06:40:04.721Z,24.3
2018-08-07T06:41:11.936Z,24.5
2018-08-07T06:42:19.145Z,24.6
2018-08-07T06:43:26.358Z,24.6
2018-08-07T06:44:33.572Z,24.6
2018-08-07T06:45:40.784Z,24.7
2018-08-07T06:46:48.010Z,24.7
2018-08-07T06:47:55.272Z,24.9
2018-08-07T06:49:02.553Z,25.1
2018-08-07T06:50:09.844Z,25.4
2018-08-07T06:51:16.807Z,25.6
2018-08-07T06:52:24.026Z,25.7
2018-08-07T06:53:31.247Z,25.8
2018-08-07T06:54:38.461Z,26
2018-08-07T06:55:45.416Z,26
2018-08-07T06:56:52.643Z,26
2018-08-07T06:57:59.862Z,26.2
2018-08-07T06:59:06.807Z,26.1
2018-08-07T07:00:14.026Z,26.2
2018-08-07T07:01:21.235Z,26.4
2018-08-07T07:02:28.451Z,26.5
2018-08-07T07:03:35.668Z,26.7
2018-08-07T07:04:42.621Z,27
2018-08-07T07:05:49.837Z,27.1
2018-08-07T07:06:57.048Z,27.2
2018-08-07T07:08:04.262Z,27.3
2018-08-07T07:09:11.475Z,27.4
2018-08-07T07:10:18.699Z,27.2
2018-08-07T07:11:25.637Z,27.1
2018-08-07T07:12:32.899Z,27.2
2018-08-07T07:13:40.110Z,27.4
2018-08-07T07:14:47.421Z,27.4
2018-08-07T07:15:54.772Z,27.4
2018-08-07T07:17:01.989Z,27.4
2018-08-07T07:18:09.203Z,27.6
2018-08-07T07:19:16.152Z,27.9
2018-08-07T07:20:23.097Z,28
2018-08-07T07:21:30.312Z,28
2018-08-07T07:22:37.289Z,27.9
2018-08-07T07:23:44.502Z,27.9
2018-08-07T07:24:51.721Z,28.1
2018-08-07T07:25:58.936Z,28.2
2018-08-07T07:27:06.147Z,28.4
2018-08-07T07:28:13.364Z,28.3
2018-08-07T07:29:20.308Z,28.2
2018-08-07T07:30:27.528Z,28.4
2018-08-07T07:31:34.746Z,28.6
2018-08-07T07:32:41.965Z,28.6
2018-08-07T07:33:49.183Z,28.6
2018-08-07T07:34:56.399Z,28.7
2018-08-07T07:36:03.620Z,28.7
2018-08-07T07:37:11.062Z,28.8
2018-08-07T07:38:18.276Z,28.9
2018-08-07T07:39:25.497Z,28.9
2018-08-07T07:40:32.719Z,29
2018-08-07T07:41:39.959Z,29.1
2018-08-07T07:42:47.173Z,29.2
2018-08-07T07:43:54.390Z,29.4
2018-08-07T07:45:01.612Z,29.4
2018-08-07T07:46:08.920Z,29.3
2018-08-07T07:47:16.164Z,29.1
2018-08-07T07:48:23.384Z,29.3
2018-08-07T07:49:30.610Z,29.4
2018-08-07T07:50:37.821Z,29.4
2018-08-07T07:51:45.048Z,29.3
2018-08-07T07:52:52.267Z,29.1
2018-08-07T07:53:59.558Z,29.4
2018-08-07T07:55:06.957Z,29.5
2018-08-07T07:56:14.175Z,29.6
2018-08-07T07:57:21.394Z,29.6
2018-08-07T07:58:28.608Z,29.6
2018-08-07T07:59:35.828Z,29.8
2018-08-07T08:00:43.044Z,29.8
2018-08-07T08:01:50.262Z,30.1
2018-08-07T08:02:57.481Z,30.2
2018-08-07T08:04:04.698Z,30.4
2018-08-07T08:05:12.067Z,30.5
2018-08-07T08:06:19.414Z,30.6
2018-08-07T08:07:26.659Z,30.7
2018-08-07T08:08:33.876Z,30.7
2018-08-07T08:09:41.095Z,30.6
2018-08-07T08:10:48.312Z,30.5
2018-08-07T08:11:55.254Z,30.5
2018-08-07T08:13:02.473Z,30.5
2018-08-07T08:14:09.421Z,30.3
2018-08-07T08:15:16.365Z,30.2
2018-08-07T08:16:23.584Z,30.5
2018-08-07T08:17:30.810Z,30.8
2018-08-07T08:18:38.021Z,30.6
2018-08-07T08:19:45.241Z,30.5
2018-08-07T08:20:52.465Z,30.6
2018-08-07T08:21:59.680Z,30.9
2018-08-07T08:23:06.901Z,31.3
2018-08-07T08:24:14.126Z,31.7
2018-08-07T08:25:21.344Z,32
2018-08-07T08:26:28.560Z,32
2018-08-07T08:27:35.505Z,31.9
2018-08-07T08:28:42.759Z,32.1
2018-08-07T08:29:50.229Z,32.2
2018-08-07T08:30:57.956Z,32.4
2018-08-07T08:32:05.173Z,32.6
2018-08-07T08:33:12.391Z,32.7
2018-08-07T08:34:19.608Z,32.5
2018-08-07T08:35:27.063Z,32.5
2018-08-07T08:36:34.731Z,32.7
2018-08-07T08:37:41.983Z,32.9
2018-08-07T08:38:49.203Z,33
2018-08-07T08:39:56.421Z,33.3
2018-08-07T08:41:03.368Z,33.1
2018-08-07T08:42:10.310Z,33
2018-08-07T08:43:17.527Z,33.2
2018-08-07T08:44:24.746Z,33.5
2018-08-07T08:45:31.966Z,33.8
2018-08-07T08:46:39.183Z,33.8
2018-08-07T08:47:46.443Z,33.8
2018-08-07T08:48:53.698Z,33.8
2018-08-07T08:50:00.914Z,34
2018-08-07T08:51:08.139Z,34
2018-08-07T08:52:15.356Z,34
2018-08-07T08:53:22.575Z,34
2018-08-07T08:54:29.789Z,34
2018-08-07T08:55:37.016Z,34.2
2018-08-07T08:56:44.236Z,34.2
2018-08-07T08:57:51.459Z,34.1
2018-08-07T08:58:58.684Z,34.1
2018-08-07T09:00:05.914Z,33.9
2018-08-07T09:01:13.176Z,33.7
2018-08-07T09:02:20.118Z,33.7
2018-08-07T09:03:27.058Z,33.6
2018-08-07T09:04:34.282Z,33.8
2018-08-07T09:05:41.501Z,34
2018-08-07T09:06:48.730Z,34
2018-08-07T09:07:55.945Z,34
2018-08-07T09:09:03.166Z,34.3
2018-08-07T09:10:10.500Z,34.3
2018-08-07T09:11:17.545Z,33.9
2018-08-07T09:12:24.824Z,33.7
2018-08-07T09:13:32.044Z,33.8
2018-08-07T09:14:39.266Z,34.1
2018-08-07T09:15:46.482Z,34.2
2018-08-07T09:16:53.698Z,34.5
2018-08-07T09:18:00.935Z,34.7
2018-08-07T09:19:08.149Z,34.6
2018-08-07T09:20:15.371Z,34.9
2018-08-07T09:21:22.319Z,35.1
2018-08-07T09:22:29.537Z,34.6
2018-08-07T09:23:36.758Z,34.5
2018-08-07T09:24:43.703Z,34.4
2018-08-07T09:25:51.331Z,33.8
2018-08-07T09:26:59.330Z,33.8
2018-08-07T09:28:06.278Z,34.1
2018-08-07T09:29:13.502Z,33.8
2018-08-07T09:30:20.721Z,33.9
2018-08-07T09:31:27.939Z,33.7
2018-08-07T09:32:35.161Z,34
2018-08-07T09:33:42.382Z,34.4
2018-08-07T09:34:49.605Z,33.9
2018-08-07T09:35:56.823Z,33.9
2018-08-07T09:37:04.059Z,33.6
2018-08-07T09:38:11.275Z,33.7
2018-08-07T09:39:18.501Z,34.2
2018-08-07T09:40:25.755Z,34.6
2018-08-07T09:41:32.964Z,34.5
2018-08-07T09:42:40.192Z,34.2
2018-08-07T09:43:47.411Z,34.1
2018-08-07T09:44:54.633Z,34.1
2018-08-07T09:46:01.851Z,34.3
2018-08-07T09:47:09.075Z,34.4
2018-08-07T09:48:16.295Z,34.5
2018-08-07T09:49:23.515Z,34.6
2018-08-07T09:50:30.734Z,34.5
2018-08-07T09:51:37.963Z,34.6
2018-08-07T09:52:45.181Z,35
2018-08-07T09:53:52.429Z,35.2
2018-08-07T09:54:59.652Z,34.9
2018-08-07T09:56:06.869Z,34.9
2018-08-07T09:57:13.814Z,35
2018-08-07T09:58:21.039Z,35.3
2018-08-07T09:59:28.260Z,35.7
2018-08-07T10:00:35.483Z,35.7
2018-08-07T10:01:42.704Z,36
2018-08-07T10:02:49.929Z,36.3
2018-08-07T10:03:57.145Z,36.2
2018-08-07T10:05:04.697Z,36.1
2018-08-07T10:06:12.051Z,36
2018-08-07T10:07:19.269Z,35.8
2018-08-07T10:08:26.490Z,35.8
2018-08-07T10:09:33.707Z,35.6
2018-08-07T10:10:40.930Z,35.3
2018-08-07T10:11:48.150Z,35.3
2018-08-07T10:12:55.098Z,35.4
2018-08-07T10:14:02.323Z,35.4
2018-08-07T10:15:09.272Z,35.4
2018-08-07T10:16:16.495Z,35.8
2018-08-07T10:17:23.718Z,36.2
2018-08-07T10:18:30.942Z,36.4
2018-08-07T10:19:38.170Z,36.5
2018-08-07T10:20:45.389Z,36.4
2018-08-07T10:21:52.604Z,36.5
2018-08-07T10:22:59.823Z,36.3
2018-08-07T10:24:07.070Z,36.1
2018-08-07T10:25:14.303Z,35.9
2018-08-07T10:26:21.529Z,35.9
2018-08-07T10:27:28.751Z,36
2018-08-07T10:28:35.972Z,35.9
2018-08-07T10:29:42.937Z,35.8
2018-08-07T10:30:50.170Z,35.7
2018-08-07T10:31:57.397Z,36
2018-08-07T10:33:04.617Z,36.1
2018-08-07T10:34:11.843Z,36.3
2018-08-07T10:35:19.065Z,36.5
2018-08-07T10:36:26.284Z,36.7
2018-08-07T10:37:33.510Z,36.8
2018-08-07T10:38:40.731Z,37
2018-08-07T10:39:47.672Z,37
2018-08-07T10:40:55.100Z,37.1
2018-08-07T10:42:02.196Z,36.6
2018-08-07T10:43:09.712Z,36.4
2018-08-07T10:44:17.547Z,36.1
2018-08-07T10:45:25.175Z,36.4
2018-08-07T10:46:32.567Z,36.7
2018-08-07T10:47:40.162Z,37
2018-08-07T10:48:47.556Z,37.1
2018-08-07T10:49:54.829Z,36.9
2018-08-07T10:51:02.033Z,36.8
2018-08-07T10:52:09.303Z,36.9
2018-08-07T10:53:16.359Z,36.9
2018-08-07T10:54:23.584Z,37.2
2018-08-07T10:55:30.810Z,37.1
2018-08-07T10:56:38.230Z,36.9
2018-08-07T10:57:45.733Z,36.9
2018-08-07T10:58:52.952Z,37
2018-08-07T11:00:00.175Z,37.3
2018-08-07T11:01:07.126Z,37.4
2018-08-07T11:02:14.349Z,37.3
2018-08-07T11:03:21.569Z,37.2
2018-08-07T11:04:28.795Z,37.2
2018-08-07T11:05:36.067Z,37
2018-08-07T11:06:43.361Z,36.7
2018-08-07T11:07:50.586Z,36.9
2018-08-07T11:08:57.833Z,37.3
2018-08-07T11:10:05.059Z,37.6
2018-08-07T11:11:12.285Z,37.9
2018-08-07T11:12:19.518Z,38.2
2018-08-07T11:13:26.744Z,38.3
2018-08-07T11:14:33.967Z,37.9
2018-08-07T11:15:40.920Z,37.8
2018-08-07T11:16:48.171Z,37.8
2018-08-07T11:17:55.411Z,37.2
2018-08-07T11:19:02.631Z,37
2018-08-07T11:20:09.857Z,37.2
2018-08-07T11:21:17.083Z,37.4
2018-08-07T11:22:24.306Z,37.4
2018-08-07T11:23:31.538Z,37.7
2018-08-07T11:24:38.848Z,37.9
2018-08-07T11:25:46.131Z,38.1
2018-08-07T11:26:53.361Z,38
2018-08-07T11:28:00.586Z,38.2
2018-08-07T11:29:07.815Z,37.9
2018-08-07T11:30:15.037Z,38
2018-08-07T11:31:22.264Z,38.2
2018-08-07T11:32:29.221Z,38.2
2018-08-07T11:33:36.444Z,38
2018-08-07T11:34:43.669Z,37.9
2018-08-07T11:35:50.966Z,37.8
2018-08-07T11:36:58.322Z,37.9
2018-08-07T11:38:05.274Z,37.8
2018-08-07T11:39:12.220Z,37.9
2018-08-07T11:40:19.446Z,38.1
2018-08-07T11:41:26.797Z,38.2
2018-08-07T11:42:34.299Z,38.4
2018-08-07T11:43:41.523Z,38.5
2018-08-07T11:44:48.755Z,38.4
2018-08-07T11:45:55.982Z,38.3
2018-08-07T11:47:03.228Z,38.2
2018-08-07T11:48:10.506Z,37.9
2018-08-07T11:49:17.749Z,37.9
2018-08-07T11:50:24.704Z,38.2
2018-08-07T11:51:31.654Z,38.8
2018-08-07T11:52:38.879Z,39
2018-08-07T11:53:46.104Z,39.2
2018-08-07T11:54:53.333Z,39.2
2018-08-07T11:56:00.554Z,39
2018-08-07T11:57:07.781Z,38.9
2018-08-07T11:58:15.004Z,38.2
2018-08-07T11:59:22.234Z,38.1
2018-08-07T12:00:29.460Z,38.3
2018-08-07T12:01:36.687Z,38.4
2018-08-07T12:02:43.917Z,38.5
2018-08-07T12:03:51.140Z,38.4
2018-08-07T12:04:58.365Z,38.4
2018-08-07T12:06:05.589Z,38.3
2018-08-07T12:07:12.817Z,38.4
2018-08-07T12:08:20.044Z,38.4
2018-08-07T12:09:27.269Z,38.5
2018-08-07T12:10:34.492Z,38.5
2018-08-07T12:11:41.716Z,38.7
2018-08-07T12:12:48.971Z,38.9
2018-08-07T12:13:55.924Z,39
2018-08-07T12:15:03.154Z,39.1
2018-08-07T12:16:10.474Z,38.9
2018-08-07T12:17:17.754Z,38.7
2018-08-07T12:18:24.982Z,38.3
2018-08-07T12:19:32.211Z,38
2018-08-07T12:20:39.440Z,38.1
2018-08-07T12:21:46.801Z,38.2
2018-08-07T12:22:54.488Z,38
2018-08-07T12:24:01.714Z,37.8
2018-08-07T12:25:08.939Z,37.9
2018-08-07T12:26:16.164Z,37.8
2018-08-07T12:27:23.393Z,37.4
2018-08-07T12:28:30.617Z,37.4
2018-08-07T12:29:37.840Z,38
2018-08-07T12:30:44.790Z,38.4
2018-08-07T12:31:52.014Z,38.6
2018-08-07T12:32:59.242Z,38.8
2018-08-07T12:34:06.469Z,39.2
2018-08-07T12:35:13.878Z,39.5
2018-08-07T12:36:21.352Z,39.1
2018-08-07T12:37:28.580Z,38.7
2018-08-07T12:38:35.809Z,38.9
2018-08-07T12:39:43.030Z,39.1
2018-08-07T12:40:50.255Z,39.1
2018-08-07T12:41:57.477Z,39.2
2018-08-07T12:43:04.431Z,39.2
2018-08-07T12:44:11.658Z,39.3
2018-08-07T12:45:18.883Z,39.2
2018-08-07T12:46:26.174Z,38.8
2018-08-07T12:47:33.532Z,38.7
2018-08-07T12:48:40.499Z,38.9
2018-08-07T12:49:47.464Z,39.4
2018-08-07T12:50:54.408Z,39.4
2018-08-07T12:52:01.632Z,39.5
2018-08-07T12:53:08.927Z,39.9
2018-08-07T12:54:16.229Z,40.3
2018-08-07T12:55:23.456Z,40.4
2018-08-07T12:56:30.689Z,40.4
2018-08-07T12:57:37.915Z,40.2
2018-08-07T12:58:45.139Z,39.7
2018-08-07T12:59:52.366Z,39.3
2018-08-07T13:00:59.590Z,39.2
2018-08-07T13:02:06.825Z,39.3
2018-08-07T13:03:14.053Z,39.3
2018-08-07T13:04:21.282Z,39.2
2018-08-07T13:05:28.509Z,38.8
2018-08-07T13:06:35.741Z,38.5
2018-08-07T13:07:42.963Z,38.5
2018-08-07T13:08:50.196Z,38.8
2018-08-07T13:09:57.421Z,39.2
2018-08-07T13:11:04.645Z,38.7
2018-08-07T13:12:11.873Z,38.4
2018-08-07T13:13:19.095Z,38.5
2018-08-07T13:14:26.053Z,38.5
2018-08-07T13:15:33.277Z,38.4
2018-08-07T13:16:40.533Z,38.7
2018-08-07T13:17:47.761Z,38.8
2018-08-07T13:18:54.989Z,38.8
2018-08-07T13:20:02.213Z,38.8
2018-08-07T13:21:09.438Z,38.8
2018-08-07T13:22:16.708Z,39.1
2018-08-07T13:23:23.921Z,39.4
2018-08-07T13:24:31.148Z,39.4
2018-08-07T13:25:38.422Z,39.9
2018-08-07T13:26:45.642Z,39.6
2018-08-07T13:27:52.586Z,39.3
2018-08-07T13:28:59.812Z,39.4
2018-08-07T13:30:06.777Z,39.2
2018-08-07T13:31:13.830Z,39.2
2018-08-07T13:32:21.187Z,39.2
2018-08-07T13:33:28.419Z,39
2018-08-07T13:34:35.650Z,38.9
2018-08-07T13:35:42.874Z,38.8
2018-08-07T13:36:50.099Z,39.1
2018-08-07T13:37:57.381Z,39.3
2018-08-07T13:39:04.610Z,39.3
2018-08-07T13:40:11.852Z,38.9
2018-08-07T13:41:19.079Z,38.7
2018-08-07T13:42:26.457Z,38.6
2018-08-07T13:43:33.908Z,38.8
2018-08-07T13:44:41.145Z,39.1
2018-08-07T13:45:48.368Z,38.9
2018-08-07T13:46:55.597Z,38.8
2018-08-07T13:48:02.819Z,38.9
2018-08-07T13:49:10.049Z,39.1
2018-08-07T13:50:17.006Z,39.1
2018-08-07T13:51:24.240Z,39.2
2018-08-07T13:52:31.182Z,39.2
2018-08-07T13:53:38.415Z,38.7
2018-08-07T13:54:45.647Z,38.5
2018-08-07T13:55:52.936Z,38
2018-08-07T13:57:00.391Z,37.5
2018-08-07T13:58:07.609Z,37.3
2018-08-07T13:59:14.835Z,37.2
2018-08-07T14:00:22.064Z,36.9
2018-08-07T14:01:29.286Z,36.7
2018-08-07T14:02:36.505Z,36.5
2018-08-07T14:03:43.836Z,36.2
2018-08-07T14:04:51.108Z,36.2
2018-08-07T14:05:58.331Z,36.4
2018-08-07T14:07:05.285Z,36
2018-08-07T14:08:12.521Z,35.8
2018-08-07T14:09:19.759Z,35.6
2018-08-07T14:10:26.986Z,35.5
2018-08-07T14:11:33.940Z,35.4
2018-08-07T14:12:41.452Z,35.5
2018-08-07T14:13:48.145Z,35.3
2018-08-07T14:14:55.370Z,35.2
2018-08-07T14:16:02.324Z,35
2018-08-07T14:17:09.547Z,35.2
2018-08-07T14:18:16.773Z,35.1
2018-08-07T14:19:23.999Z,35
2018-08-07T14:20:30.951Z,35
2018-08-07T14:21:38.180Z,34.8
2018-08-07T14:22:45.128Z,34.5
2018-08-07T14:23:52.351Z,34.5
2018-08-07T14:24:59.577Z,34.5
2018-08-07T14:26:06.814Z,34.5
2018-08-07T14:27:14.037Z,34.3
2018-08-07T14:28:21.264Z,34.4
2018-08-07T14:29:28.490Z,34.3
2018-08-07T14:30:35.711Z,34.2
2018-08-07T14:31:43.062Z,33.9
2018-08-07T14:32:50.288Z,33.9
2018-08-07T14:33:57.509Z,33.9
2018-08-07T14:35:04.731Z,33.7
2018-08-07T14:36:11.955Z,33.7
2018-08-07T14:37:19.185Z,33.7
2018-08-07T14:38:26.411Z,33.6
2018-08-07T14:39:33.636Z,33.6
2018-08-07T14:40:40.877Z,33.5
2018-08-07T14:41:48.113Z,33.6
2018-08-07T14:42:55.334Z,33.4
2018-08-07T14:44:02.570Z,33.3
2018-08-07T14:45:09.508Z,33.3
2018-08-07T14:46:16.738Z,33.3
2018-08-07T14:47:23.960Z,33.3
2018-08-07T14:48:31.177Z,33.4
2018-08-07T14:49:38.401Z,33.4
2018-08-07T14:50:45.352Z,33.4
2018-08-07T14:51:52.575Z,33.5
2018-08-07T14:52:59.523Z,33.4
2018-08-07T14:54:06.831Z,33.3
2018-08-07T14:55:14.220Z,33.1
2018-08-07T14:56:21.439Z,32.8
2018-08-07T14:57:28.658Z,32.6
2018-08-07T14:58:35.885Z,32.4
2018-08-07T14:59:43.110Z,32.1